createdAt,value
2022-11-14T00:01:57.260Z,101270.40
2022-11-14T00:05:04.305Z,101277.20
2022-11-14T00:08:14.304Z,101278.00
2022-11-14T00:11:21.272Z,101280.20
2022-11-14T00:14:31.327Z,101285.60
2022-11-14T00:17:38.315Z,101279.20
2022-11-14T00:20:48.289Z,101281.80
2022-11-14T00:23:55.269Z,101279.40
2022-11-14T00:27:02.389Z,101279.60
2022-11-14T00:30:12.335Z,101277.20
2022-11-14T00:33:26.339Z,101280.00
2022-11-14T00:36:34.284Z,101275.80
2022-11-14T00:39:41.323Z,101276.60
2022-11-14T00:42:50.322Z,101273.40
2022-11-14T00:45:57.375Z,101275.20
2022-11-14T00:49:04.390Z,101272.60
2022-11-14T00:52:14.453Z,101269.20
2022-11-14T00:55:24.362Z,101264.60
2022-11-14T00:58:31.662Z,101267.80
2022-11-14T01:01:40.394Z,101269.60
2022-11-14T01:04:50.403Z,101264.20
2022-11-14T01:07:57.412Z,101258.40
2022-11-14T01:11:07.464Z,101252.00
2022-11-14T01:14:17.410Z,101250.60
2022-11-14T01:17:27.430Z,101251.80
2022-11-14T01:20:38.460Z,101251.60
2022-11-14T01:23:48.445Z,101254.60
2022-11-14T01:26:55.486Z,101251.00
2022-11-14T01:30:05.414Z,101248.80
2022-11-14T01:33:12.509Z,101250.80
2022-11-14T01:36:22.476Z,101246.60
2022-11-14T01:39:29.498Z,101238.60
2022-11-14T01:42:38.467Z,101240.00
2022-11-14T01:45:45.525Z,101239.60
2022-11-14T01:48:51.492Z,101240.40
2022-11-14T01:52:01.517Z,101239.40
2022-11-14T01:55:11.509Z,101238.80
2022-11-14T01:58:18.535Z,101244.20
2022-11-14T02:01:32.640Z,101237.00
2022-11-14T02:04:42.588Z,101241.20
2022-11-14T02:07:49.542Z,101240.20
2022-11-14T02:11:00.562Z,101241.80
2022-11-14T02:14:07.557Z,101242.60
2022-11-14T02:17:29.149Z,101242.60
2022-11-14T02:20:37.576Z,101239.40
2022-11-14T02:23:44.606Z,101240.00
2022-11-14T02:26:51.587Z,101242.20
2022-11-14T02:30:01.611Z,101237.00
2022-11-14T02:33:10.998Z,101235.80
2022-11-14T02:36:18.652Z,101235.20
2022-11-14T02:40:06.261Z,101239.40
2022-11-14T02:43:23.630Z,101236.80
2022-11-14T02:46:42.677Z,101239.80
2022-11-14T02:49:54.665Z,101239.80
2022-11-14T02:53:04.655Z,101242.00
2022-11-14T02:56:11.668Z,101238.00
2022-11-14T02:59:18.718Z,101235.60
2022-11-14T03:02:29.699Z,101234.00
2022-11-14T03:05:36.767Z,101236.80
2022-11-14T03:08:43.702Z,101235.00
2022-11-14T03:11:53.750Z,101230.80
2022-11-14T03:15:00.695Z,101237.00
2022-11-14T03:18:07.784Z,101232.80
2022-11-14T03:21:14.755Z,101233.80
2022-11-14T03:24:21.729Z,101235.20
2022-11-14T03:27:31.762Z,101238.20
2022-11-14T03:30:55.821Z,101241.20
2022-11-14T03:34:05.805Z,101244.60
2022-11-14T03:37:12.759Z,101246.20
2022-11-14T03:40:22.750Z,101244.40
2022-11-14T03:43:29.824Z,101245.20
2022-11-14T03:46:36.777Z,101242.00
2022-11-14T03:49:46.860Z,101244.80
2022-11-14T03:52:59.759Z,101250.20
2022-11-14T03:56:09.837Z,101242.40
2022-11-14T03:59:16.802Z,101247.80
2022-11-14T04:02:31.827Z,101248.40
2022-11-14T04:05:38.865Z,101249.20
2022-11-14T04:08:58.840Z,101250.40
2022-11-14T04:12:15.360Z,101246.80
2022-11-14T04:15:23.882Z,101249.80
2022-11-14T04:18:34.851Z,101251.80
2022-11-14T04:21:41.879Z,101250.60
2022-11-14T04:24:48.949Z,101252.80
2022-11-14T04:28:02.904Z,101256.20
2022-11-14T04:31:09.868Z,101259.40
2022-11-14T04:34:17.028Z,101252.00
2022-11-14T04:37:24.984Z,101255.40
2022-11-14T04:40:55.904Z,101259.80
2022-11-14T04:44:02.939Z,101261.40
2022-11-14T04:47:09.959Z,101261.80
2022-11-14T04:50:16.969Z,101264.40
2022-11-14T04:53:26.960Z,101266.60
2022-11-14T04:56:34.018Z,101264.60
2022-11-14T04:59:40.996Z,101267.80
2022-11-14T05:02:50.978Z,101271.20
2022-11-14T05:05:58.004Z,101268.80
2022-11-14T05:09:07.933Z,101269.60
2022-11-14T05:12:15.031Z,101275.40
2022-11-14T05:15:21.996Z,101277.20
2022-11-14T05:18:39.871Z,101277.60
2022-11-14T05:21:53.109Z,101281.00
2022-11-14T05:25:02.050Z,101283.20
2022-11-14T05:28:12.216Z,101292.60
2022-11-14T05:31:32.082Z,101290.40
2022-11-14T05:34:41.830Z,101298.80
2022-11-14T05:37:56.081Z,101293.60
2022-11-14T05:41:06.113Z,101295.20
2022-11-14T05:44:16.110Z,101296.60
2022-11-14T05:47:26.075Z,101295.40
2022-11-14T05:50:36.121Z,101300.00
2022-11-14T05:54:20.532Z,101302.40
2022-11-14T05:58:14.540Z,101302.20
2022-11-14T06:02:03.409Z,101303.60
2022-11-14T06:05:50.870Z,101301.80
2022-11-14T06:09:32.578Z,101304.20
2022-11-14T06:12:40.164Z,101306.60
2022-11-14T06:15:53.153Z,101307.20
2022-11-14T06:19:13.217Z,101305.00
2022-11-14T06:22:27.209Z,101306.40
2022-11-14T06:25:38.264Z,101308.60
2022-11-14T06:28:52.217Z,101307.80
2022-11-14T06:32:12.223Z,101317.20
2022-11-14T06:35:49.188Z,101313.80
2022-11-14T06:39:12.238Z,101317.20
2022-11-14T06:42:25.262Z,101317.60
2022-11-14T06:45:29.248Z,101319.60
2022-11-14T06:48:36.217Z,101319.00
2022-11-14T06:51:46.251Z,101315.80
2022-11-14T06:55:07.192Z,101320.40
2022-11-14T06:58:17.493Z,101323.00
2022-11-14T07:01:31.028Z,101323.20
2022-11-14T07:04:42.362Z,101321.60
2022-11-14T07:07:52.277Z,101311.80
2022-11-14T07:10:59.251Z,101312.20
2022-11-14T07:14:16.398Z,101317.00
2022-11-14T07:17:36.697Z,101318.80
2022-11-14T07:20:47.368Z,101314.80
2022-11-14T07:23:59.336Z,101313.20
2022-11-14T07:27:07.345Z,101313.80
2022-11-14T07:30:17.370Z,101310.00
2022-11-14T07:33:24.367Z,101305.80
2022-11-14T07:36:31.402Z,101305.40
2022-11-14T07:39:41.464Z,101307.40
2022-11-14T07:42:51.375Z,101301.60
2022-11-14T07:45:58.476Z,101302.40
2022-11-14T07:49:08.507Z,101299.40
2022-11-14T07:52:15.407Z,101293.60
2022-11-14T07:55:22.428Z,101296.80
2022-11-14T07:58:29.742Z,101297.00
2022-11-14T08:01:37.530Z,101299.00
2022-11-14T08:04:47.501Z,101300.60
2022-11-14T08:07:57.533Z,101295.40
2022-11-14T08:11:04.428Z,101301.40
2022-11-14T08:14:11.457Z,101292.80
2022-11-14T08:17:18.451Z,101292.20
2022-11-14T08:20:25.464Z,101291.40
2022-11-14T08:23:35.514Z,101288.40
2022-11-14T08:26:45.517Z,101289.20
2022-11-14T08:29:55.512Z,101295.20
2022-11-14T08:33:05.480Z,101297.40
2022-11-14T08:36:15.515Z,101297.40
2022-11-14T08:39:30.501Z,101293.00
2022-11-14T08:42:37.565Z,101290.40
2022-11-14T08:45:44.500Z,101294.00
2022-11-14T08:48:51.558Z,101293.40
2022-11-14T08:52:01.526Z,101291.40
2022-11-14T08:55:11.511Z,101280.40
2022-11-14T08:58:27.578Z,101281.00
2022-11-14T09:01:38.549Z,101289.00
2022-11-14T09:04:48.625Z,101284.40
2022-11-14T09:07:58.535Z,101284.60
2022-11-14T09:11:06.453Z,101277.40
2022-11-14T09:14:17.582Z,101272.40
2022-11-14T09:17:27.580Z,101266.20
2022-11-14T09:20:39.681Z,101266.00
2022-11-14T09:23:47.627Z,101264.20
2022-11-14T09:26:58.401Z,101262.60
2022-11-14T09:30:05.652Z,101255.80
2022-11-14T09:33:12.607Z,101252.80
2022-11-14T09:36:22.590Z,101254.00
2022-11-14T09:39:29.629Z,101248.20
2022-11-14T09:42:36.672Z,101245.60
2022-11-14T09:45:54.674Z,101243.40
2022-11-14T09:49:01.690Z,101241.60
2022-11-14T09:52:31.472Z,101242.20
2022-11-14T09:55:38.658Z,101242.00
2022-11-14T09:58:48.729Z,101244.00
2022-11-14T10:01:59.367Z,101240.20
2022-11-14T10:05:06.724Z,101236.80
2022-11-14T10:08:13.714Z,101235.00
2022-11-14T10:11:23.770Z,101229.80
2022-11-14T10:14:30.713Z,101227.40
2022-11-14T10:17:37.800Z,101218.80
2022-11-14T10:20:47.812Z,101216.20
2022-11-14T10:23:54.771Z,101209.60
2022-11-14T10:27:01.785Z,101200.00
2022-11-14T10:30:08.760Z,101192.60
2022-11-14T10:33:15.797Z,101195.80
2022-11-14T10:36:13.811Z,101191.40
2022-11-14T10:39:20.822Z,101188.80
2022-11-14T10:42:30.868Z,101191.00
2022-11-14T10:45:37.947Z,101187.80
2022-11-14T10:48:54.981Z,101182.20
2022-11-14T10:52:04.869Z,101177.80
2022-11-14T10:55:11.980Z,101175.40
2022-11-14T10:58:19.877Z,101179.40
2022-11-14T11:01:29.907Z,101177.40
2022-11-14T11:04:39.925Z,101169.80
2022-11-14T11:07:49.894Z,101170.40
2022-11-14T11:10:59.904Z,101166.20
2022-11-14T11:14:06.923Z,101167.00
2022-11-14T11:17:13.921Z,101162.60
2022-11-14T11:20:23.861Z,101160.40
2022-11-14T11:23:30.888Z,101157.80
2022-11-14T11:26:37.871Z,101153.20
2022-11-14T11:29:44.921Z,101159.00
2022-11-14T11:32:54.884Z,101158.00
2022-11-14T11:36:01.925Z,101153.60
2022-11-14T11:39:10.009Z,101149.00
2022-11-14T11:42:20.913Z,101148.40
2022-11-14T11:45:30.940Z,101141.00
2022-11-14T11:48:37.947Z,101137.60
2022-11-14T11:51:44.982Z,101134.80
2022-11-14T11:54:52.063Z,101131.20
2022-11-14T11:58:05.086Z,101132.00
2022-11-14T12:01:11.972Z,101135.80
2022-11-14T12:04:19.001Z,101128.60
2022-11-14T12:07:26.108Z,101125.60
2022-11-14T12:10:35.993Z,101135.80
2022-11-14T12:13:50.010Z,101127.00
2022-11-14T12:16:57.005Z,101128.80
2022-11-14T12:20:07.127Z,101123.80
2022-11-14T12:23:17.042Z,101124.40
2022-11-14T12:26:23.981Z,101119.20
2022-11-14T12:29:31.051Z,101116.40
2022-11-14T12:35:53.083Z,101114.00
2022-11-14T12:39:03.056Z,101116.80
2022-11-14T12:42:10.047Z,101116.80
2022-11-14T12:45:20.061Z,101114.20
2022-11-14T12:48:30.096Z,101115.40
2022-11-14T12:51:37.123Z,101113.80
2022-11-14T12:54:44.117Z,101114.80
2022-11-14T12:57:51.106Z,101117.40
2022-11-14T13:00:58.169Z,101114.80
2022-11-14T13:04:08.244Z,101113.80
2022-11-14T13:07:15.260Z,101117.80
2022-11-14T13:10:25.166Z,101114.20
2022-11-14T13:13:35.434Z,101113.20
2022-11-14T13:16:43.245Z,101111.60
2022-11-14T13:19:50.156Z,101107.80
2022-11-14T13:23:01.164Z,101106.40
2022-11-14T13:26:08.179Z,101100.80
2022-11-14T13:29:15.323Z,101103.60
2022-11-14T13:32:25.171Z,101100.60
2022-11-14T13:35:32.248Z,101101.80
2022-11-14T13:38:39.217Z,101096.40
2022-11-14T13:41:49.249Z,101091.60
2022-11-14T13:44:56.231Z,101094.60
2022-11-14T13:48:03.259Z,101095.40
2022-11-14T13:51:41.209Z,101096.80
2022-11-14T13:54:40.254Z,101095.20
2022-11-14T13:57:50.242Z,101094.80
2022-11-14T14:00:57.275Z,101090.00
2022-11-14T14:04:08.219Z,101089.60
2022-11-14T14:07:15.403Z,101084.60
2022-11-14T14:10:22.284Z,101088.20
2022-11-14T14:13:29.688Z,101087.60
2022-11-14T14:16:37.281Z,101081.40
2022-11-14T14:19:44.340Z,101083.00
2022-11-14T14:22:54.366Z,101084.40
2022-11-14T14:26:01.435Z,101079.80
2022-11-14T14:29:11.371Z,101078.00
2022-11-14T14:32:18.347Z,101077.80
2022-11-14T14:35:28.333Z,101077.60
2022-11-14T14:38:42.222Z,101077.20
2022-11-14T14:41:52.415Z,101079.00
2022-11-14T14:45:02.394Z,101076.00
2022-11-14T14:48:09.412Z,101075.00
2022-11-14T14:51:19.452Z,101076.40
2022-11-14T14:54:26.514Z,101073.40
2022-11-14T14:57:36.605Z,101071.60
2022-11-14T15:00:46.447Z,101070.40
2022-11-14T15:04:03.463Z,101067.80
2022-11-14T15:07:11.471Z,101062.40
2022-11-14T15:10:21.578Z,101064.20
2022-11-14T15:13:31.434Z,101061.20
2022-11-14T15:16:38.504Z,101061.20
2022-11-14T15:19:48.512Z,101060.80
2022-11-14T15:23:01.461Z,101065.40
2022-11-14T15:26:11.470Z,101067.00
2022-11-14T15:29:18.498Z,101065.60
2022-11-14T15:32:42.499Z,101057.40
2022-11-14T15:35:52.538Z,101058.20
2022-11-14T15:38:59.914Z,101063.20
2022-11-14T15:42:10.551Z,101064.20
2022-11-14T15:45:20.638Z,101063.40
2022-11-14T15:48:34.573Z,101061.20
2022-11-14T15:51:44.582Z,101059.60
2022-11-14T15:54:51.570Z,101055.60
2022-11-14T16:01:32.671Z,101056.60
2022-11-14T16:04:46.047Z,101057.80
2022-11-14T16:07:54.569Z,101058.80
2022-11-14T16:11:01.632Z,101057.60
2022-11-14T16:14:08.638Z,101061.60
2022-11-14T16:17:18.742Z,101059.80
2022-11-14T16:20:25.635Z,101060.40
2022-11-14T16:23:32.801Z,101064.80
2022-11-14T16:26:43.691Z,101058.40
2022-11-14T16:29:53.657Z,101059.40
2022-11-14T16:33:00.681Z,101059.80
2022-11-14T16:36:12.685Z,101060.60
2022-11-14T16:39:28.617Z,101059.60
2022-11-14T16:42:39.798Z,101062.00
2022-11-14T16:45:46.684Z,101059.20
2022-11-14T16:48:54.735Z,101061.20
2022-11-14T16:52:04.766Z,101061.40
2022-11-14T16:55:14.740Z,101058.60
2022-11-14T16:58:24.909Z,101058.00
2022-11-14T17:01:32.759Z,101054.60
2022-11-14T17:04:39.770Z,101051.80
2022-11-14T17:07:49.740Z,101046.60
2022-11-14T17:10:56.792Z,101049.20
2022-11-14T17:14:07.765Z,101048.00
2022-11-14T17:17:17.859Z,101049.60
2022-11-14T17:20:27.754Z,101051.00
2022-11-14T17:23:34.754Z,101051.00
2022-11-14T17:26:51.469Z,101049.40
2022-11-14T17:29:58.863Z,101053.40
2022-11-14T17:33:08.769Z,101053.40
2022-11-14T17:36:21.776Z,101047.40
2022-11-14T17:39:28.785Z,101052.20
2022-11-14T17:42:38.835Z,101051.40
2022-11-14T17:45:48.820Z,101049.80
2022-11-14T17:48:55.909Z,101051.40
2022-11-14T17:52:02.800Z,101046.40
2022-11-14T17:55:09.868Z,101044.00
2022-11-14T17:58:19.901Z,101040.20
2022-11-14T18:01:29.968Z,101045.20
2022-11-14T18:04:36.874Z,101041.20
2022-11-14T18:07:43.888Z,101036.00
2022-11-14T18:10:50.905Z,101032.40
2022-11-14T18:14:00.929Z,101031.20
2022-11-14T18:17:15.004Z,101025.20
2022-11-14T18:20:21.962Z,101021.00
2022-11-14T18:23:28.951Z,101026.20
2022-11-14T18:26:36.067Z,101032.60
2022-11-14T18:29:45.940Z,101032.00
2022-11-14T18:32:52.968Z,101032.00
2022-11-14T18:35:59.959Z,101029.20
2022-11-14T18:39:10.973Z,101028.60
2022-11-14T18:42:22.007Z,101025.60
2022-11-14T18:45:28.962Z,101026.60
2022-11-14T18:48:36.007Z,101027.80
2022-11-14T18:51:43.000Z,101028.40
2022-11-14T18:54:57.101Z,101035.00
2022-11-14T18:58:13.041Z,101028.60
2022-11-14T19:01:20.102Z,101027.60
2022-11-14T19:04:39.092Z,101024.00
2022-11-14T19:07:49.062Z,101026.00
2022-11-14T19:10:59.004Z,101029.00
2022-11-14T19:14:06.108Z,101028.40
2022-11-14T19:17:16.066Z,101030.00
2022-11-14T19:20:23.030Z,101034.00
2022-11-14T19:23:33.333Z,101034.00
2022-11-14T19:26:41.099Z,101028.00
2022-11-14T19:29:48.104Z,101025.60
2022-11-14T19:32:55.134Z,101023.80
2022-11-14T19:36:05.177Z,101026.60
2022-11-14T19:39:15.123Z,101032.20
2022-11-14T19:42:25.130Z,101028.40
2022-11-14T19:45:32.255Z,101029.60
2022-11-14T19:48:42.150Z,101027.00
2022-11-14T19:51:49.162Z,101026.60
2022-11-14T19:54:59.142Z,101028.00
2022-11-14T19:58:06.159Z,101026.40
2022-11-14T20:01:16.255Z,101024.00
2022-11-14T20:04:35.480Z,101024.80
2022-11-14T20:07:45.207Z,101023.60
2022-11-14T20:10:58.242Z,101020.60
2022-11-14T20:14:08.196Z,101023.20
2022-11-14T20:17:15.205Z,101016.60
2022-11-14T20:20:25.212Z,101016.40
2022-11-14T20:23:32.584Z,101020.20
2022-11-14T20:26:43.230Z,101016.80
2022-11-14T20:29:53.262Z,101017.20
2022-11-14T20:33:00.256Z,101015.40
2022-11-14T20:36:10.264Z,101015.80
2022-11-14T20:39:22.258Z,101016.40
2022-11-14T20:42:29.302Z,101018.60
2022-11-14T20:45:37.296Z,101015.40
2022-11-14T20:48:44.282Z,101014.80
2022-11-14T20:51:54.307Z,101004.60
2022-11-14T20:55:08.908Z,101006.20
2022-11-14T20:58:21.318Z,101001.60
2022-11-14T21:01:31.360Z,100996.60
2022-11-14T21:04:52.280Z,100998.40
2022-11-14T21:07:59.342Z,101000.20
2022-11-14T21:11:06.353Z,101001.00
2022-11-14T21:14:16.360Z,100993.20
2022-11-14T21:17:23.374Z,100996.20
2022-11-14T21:20:31.342Z,100994.00
2022-11-14T21:23:38.385Z,100993.00
2022-11-14T21:26:45.361Z,100995.00
2022-11-14T21:29:52.425Z,100993.60
2022-11-14T21:32:59.385Z,100987.20
2022-11-14T21:36:23.001Z,100990.60
2022-11-14T21:39:33.416Z,100981.80
2022-11-14T21:42:43.474Z,100985.80
2022-11-14T21:45:50.437Z,100983.40
2022-11-14T21:48:57.441Z,100984.80
2022-11-14T21:52:04.449Z,100980.20
2022-11-14T21:55:11.415Z,100977.40
2022-11-14T21:58:18.441Z,100975.80
2022-11-14T22:01:25.510Z,100974.80
2022-11-14T22:04:35.485Z,100973.80
2022-11-14T22:07:48.620Z,100969.40
2022-11-14T22:10:58.625Z,100957.60
2022-11-14T22:14:08.669Z,100957.40
2022-11-14T22:17:16.609Z,100955.00
2022-11-14T22:20:26.608Z,100953.20
2022-11-14T22:23:34.669Z,100950.40
2022-11-14T22:26:42.653Z,100947.20
2022-11-14T22:29:50.766Z,100942.60
2022-11-14T22:32:58.704Z,100940.00
2022-11-14T22:36:06.685Z,100940.00
2022-11-14T22:39:16.676Z,100941.80
2022-11-14T22:42:26.719Z,100941.40
2022-11-14T22:45:34.696Z,100934.60
2022-11-14T22:48:51.798Z,100932.40
2022-11-14T22:52:05.777Z,100923.80
2022-11-14T22:55:17.903Z,100920.00
2022-11-14T22:58:25.769Z,100912.80
2022-11-14T23:01:39.735Z,100911.20
2022-11-14T23:04:47.757Z,100908.60
2022-11-14T23:07:54.896Z,100903.00
2022-11-14T23:11:02.763Z,100902.20
2022-11-14T23:14:12.814Z,100901.80
2022-11-14T23:17:22.767Z,100903.00
2022-11-14T23:20:35.772Z,100899.80
2022-11-14T23:23:45.784Z,100886.40
2022-11-14T23:26:53.749Z,100884.20
2022-11-14T23:30:00.819Z,100884.40
2022-11-14T23:33:10.853Z,100882.00
2022-11-14T23:36:18.818Z,100874.00
2022-11-14T23:45:31.596Z,100876.40
2022-11-14T23:48:19.814Z,100872.60
2022-11-14T23:51:07.669Z,100873.40
2022-11-14T23:53:54.962Z,100872.40
2022-11-14T23:56:42.192Z,100867.60
2022-11-14T23:59:29.310Z,100868.40
